sensor_id;sensor_type;location;lat;lon;timestamp;temperature;humidity
16437;DHT22;8328;52.206;21.006;2022-08-03T00:01:42;18.30;99.90
16437;DHT22;8328;52.206;21.006;2022-08-03T00:04:09;18.30;99.90
16437;DHT22;8328;52.206;21.006;2022-08-03T00:06:35;18.30;99.90
16437;DHT22;8328;52.206;21.006;2022-08-03T00:09:02;18.30;99.90
16437;DHT22;8328;52.206;21.006;2022-08-03T00:11:28;18.30;99.90
16437;DHT22;8328;52.206;21.006;2022-08-03T00:13:54;18.30;99.90
16437;DHT22;8328;52.206;21.006;2022-08-03T00:16:20;18.30;99.90
16437;DHT22;8328;52.206;21.006;2022-08-03T00:18:45;18.20;99.90
16437;DHT22;8328;52.206;21.006;2022-08-03T00:21:11;18.20;99.90
16437;DHT22;8328;52.206;21.006;2022-08-03T00:23:37;18.20;99.90
16437;DHT22;8328;52.206;21.006;2022-08-03T00:26:03;18.20;99.90
16437;DHT22;8328;52.206;21.006;2022-08-03T00:28:29;18.10;99.90
16437;DHT22;8328;52.206;21.006;2022-08-03T00:30:55;18.10;99.90
16437;DHT22;8328;52.206;21.006;2022-08-03T00:33:22;18.10;99.90
16437;DHT22;8328;52.206;21.006;2022-08-03T00:35:48;18.10;99.90
16437;DHT22;8328;52.206;21.006;2022-08-03T00:38:14;18.10;99.90
16437;DHT22;8328;52.206;21.006;2022-08-03T00:40:40;18.10;99.90
16437;DHT22;8328;52.206;21.006;2022-08-03T00:43:07;18.10;99.90
16437;DHT22;8328;52.206;21.006;2022-08-03T00:45:35;18.10;99.90
16437;DHT22;8328;52.206;21.006;2022-08-03T00:48:03;18.00;99.90
16437;DHT22;8328;52.206;21.006;2022-08-03T00:50:33;18.00;99.90
16437;DHT22;8328;52.206;21.006;2022-08-03T00:53:00;18.00;99.90
16437;DHT22;8328;52.206;21.006;2022-08-03T00:55:27;18.00;99.90
16437;DHT22;8328;52.206;21.006;2022-08-03T00:57:53;18.00;99.90
16437;DHT22;8328;52.206;21.006;2022-08-03T01:00:25;18.00;99.90
16437;DHT22;8328;52.206;21.006;2022-08-03T01:02:52;18.00;99.90
16437;DHT22;8328;52.206;21.006;2022-08-03T01:05:19;17.90;99.90
16437;DHT22;8328;52.206;21.006;2022-08-03T01:16:04;17.90;99.90
16437;DHT22;8328;52.206;21.006;2022-08-03T01:21:19;17.90;99.90
16437;DHT22;8328;52.206;21.006;2022-08-03T01:26:54;17.80;99.90
16437;DHT22;8328;52.206;21.006;2022-08-03T01:32:07;17.80;99.90
16437;DHT22;8328;52.206;21.006;2022-08-03T01:34:41;17.80;99.90
16437;DHT22;8328;52.206;21.006;2022-08-03T01:37:10;17.80;99.90
16437;DHT22;8328;52.206;21.006;2022-08-03T01:39:38;17.70;99.90
16437;DHT22;8328;52.206;21.006;2022-08-03T01:42:07;17.70;99.90
16437;DHT22;8328;52.206;21.006;2022-08-03T01:44:37;17.70;99.90
16437;DHT22;8328;52.206;21.006;2022-08-03T01:47:05;17.70;99.90
16437;DHT22;8328;52.206;21.006;2022-08-03T01:49:37;17.70;99.90
16437;DHT22;8328;52.206;21.006;2022-08-03T01:52:04;17.70;99.90
16437;DHT22;8328;52.206;21.006;2022-08-03T01:54:47;17.70;99.90
16437;DHT22;8328;52.206;21.006;2022-08-03T01:57:14;17.70;99.90
16437;DHT22;8328;52.206;21.006;2022-08-03T01:59:42;17.70;99.90
16437;DHT22;8328;52.206;21.006;2022-08-03T02:02:11;17.70;99.90
16437;DHT22;8328;52.206;21.006;2022-08-03T02:04:39;17.60;99.90
16437;DHT22;8328;52.206;21.006;2022-08-03T02:07:06;17.60;99.90
16437;DHT22;8328;52.206;21.006;2022-08-03T02:09:36;17.60;99.90
16437;DHT22;8328;52.206;21.006;2022-08-03T02:12:07;17.60;99.90
16437;DHT22;8328;52.206;21.006;2022-08-03T02:14:34;17.60;99.90
16437;DHT22;8328;52.206;21.006;2022-08-03T02:17:00;17.60;99.90
16437;DHT22;8328;52.206;21.006;2022-08-03T02:19:27;17.60;99.90
16437;DHT22;8328;52.206;21.006;2022-08-03T02:21:53;17.60;99.90
16437;DHT22;8328;52.206;21.006;2022-08-03T02:24:19;17.60;99.90
16437;DHT22;8328;52.206;21.006;2022-08-03T02:26:45;17.60;99.90
16437;DHT22;8328;52.206;21.006;2022-08-03T02:29:15;17.60;99.90
16437;DHT22;8328;52.206;21.006;2022-08-03T02:31:45;17.60;99.90
16437;DHT22;8328;52.206;21.006;2022-08-03T02:34:13;17.60;99.90
16437;DHT22;8328;52.206;21.006;2022-08-03T02:36:41;17.60;99.90
16437;DHT22;8328;52.206;21.006;2022-08-03T02:39:10;17.60;99.90
16437;DHT22;8328;52.206;21.006;2022-08-03T02:41:44;17.60;99.90
16437;DHT22;8328;52.206;21.006;2022-08-03T02:44:12;17.60;99.90
16437;DHT22;8328;52.206;21.006;2022-08-03T02:46:43;17.60;99.90
16437;DHT22;8328;52.206;21.006;2022-08-03T02:49:12;17.60;99.90
16437;DHT22;8328;52.206;21.006;2022-08-03T02:51:39;17.60;99.90
16437;DHT22;8328;52.206;21.006;2022-08-03T02:54:06;17.60;99.90
16437;DHT22;8328;52.206;21.006;2022-08-03T02:56:34;17.60;99.90
16437;DHT22;8328;52.206;21.006;2022-08-03T02:59:00;17.60;99.90
16437;DHT22;8328;52.206;21.006;2022-08-03T03:01:28;17.60;99.90
16437;DHT22;8328;52.206;21.006;2022-08-03T03:03:56;17.60;99.90
16437;DHT22;8328;52.206;21.006;2022-08-03T03:06:24;17.70;99.90
16437;DHT22;8328;52.206;21.006;2022-08-03T03:08:51;17.70;99.90
16437;DHT22;8328;52.206;21.006;2022-08-03T03:11:20;17.80;99.90
16437;DHT22;8328;52.206;21.006;2022-08-03T03:13:48;17.80;99.90
16437;DHT22;8328;52.206;21.006;2022-08-03T03:16:15;17.90;99.90
16437;DHT22;8328;52.206;21.006;2022-08-03T03:18:43;17.90;99.90
16437;DHT22;8328;52.206;21.006;2022-08-03T03:21:10;18.00;99.90
16437;DHT22;8328;52.206;21.006;2022-08-03T03:23:38;18.10;99.90
16437;DHT22;8328;52.206;21.006;2022-08-03T03:26:06;18.20;99.90
16437;DHT22;8328;52.206;21.006;2022-08-03T03:28:33;18.30;99.90
16437;DHT22;8328;52.206;21.006;2022-08-03T03:31:02;18.30;99.90
16437;DHT22;8328;52.206;21.006;2022-08-03T03:33:28;18.40;99.90
16437;DHT22;8328;52.206;21.006;2022-08-03T03:35:55;18.50;99.90
16437;DHT22;8328;52.206;21.006;2022-08-03T03:38:22;18.60;99.90
16437;DHT22;8328;52.206;21.006;2022-08-03T03:40:48;18.70;99.90
16437;DHT22;8328;52.206;21.006;2022-08-03T03:43:14;18.70;99.90
16437;DHT22;8328;52.206;21.006;2022-08-03T03:45:41;18.90;99.90
16437;DHT22;8328;52.206;21.006;2022-08-03T03:48:07;19.00;99.90
16437;DHT22;8328;52.206;21.006;2022-08-03T03:50:34;19.10;99.90
16437;DHT22;8328;52.206;21.006;2022-08-03T03:53:01;19.30;99.90
16437;DHT22;8328;52.206;21.006;2022-08-03T03:55:28;19.40;99.90
16437;DHT22;8328;52.206;21.006;2022-08-03T03:57:54;19.50;99.90
16437;DHT22;8328;52.206;21.006;2022-08-03T04:00:20;19.60;99.90
16437;DHT22;8328;52.206;21.006;2022-08-03T04:02:46;19.70;99.90
16437;DHT22;8328;52.206;21.006;2022-08-03T04:05:12;19.90;99.90
16437;DHT22;8328;52.206;21.006;2022-08-03T04:07:58;19.90;99.90
16437;DHT22;8328;52.206;21.006;2022-08-03T04:11:01;20.10;99.90
16437;DHT22;8328;52.206;21.006;2022-08-03T04:13:33;20.10;99.90
16437;DHT22;8328;52.206;21.006;2022-08-03T04:16:00;20.20;99.90
16437;DHT22;8328;52.206;21.006;2022-08-03T04:18:29;20.20;99.90
16437;DHT22;8328;52.206;21.006;2022-08-03T04:21:00;20.30;99.90
16437;DHT22;8328;52.206;21.006;2022-08-03T04:23:30;20.30;99.90
16437;DHT22;8328;52.206;21.006;2022-08-03T04:26:01;20.30;99.90
16437;DHT22;8328;52.206;21.006;2022-08-03T04:28:27;20.30;99.90
16437;DHT22;8328;52.206;21.006;2022-08-03T04:30:55;20.40;99.90
16437;DHT22;8328;52.206;21.006;2022-08-03T04:33:25;20.40;99.90
16437;DHT22;8328;52.206;21.006;2022-08-03T04:35:54;20.40;99.90
16437;DHT22;8328;52.206;21.006;2022-08-03T04:38:24;20.40;99.90
16437;DHT22;8328;52.206;21.006;2022-08-03T04:40:51;20.40;99.90
16437;DHT22;8328;52.206;21.006;2022-08-03T04:43:20;20.50;99.90
16437;DHT22;8328;52.206;21.006;2022-08-03T04:45:48;20.70;99.90
16437;DHT22;8328;52.206;21.006;2022-08-03T04:48:14;20.80;99.90
16437;DHT22;8328;52.206;21.006;2022-08-03T04:50:41;20.90;99.90
16437;DHT22;8328;52.206;21.006;2022-08-03T04:53:07;20.90;99.90
16437;DHT22;8328;52.206;21.006;2022-08-03T04:55:35;20.80;99.90
16437;DHT22;8328;52.206;21.006;2022-08-03T04:58:03;20.80;99.90
16437;DHT22;8328;52.206;21.006;2022-08-03T05:00:29;20.80;99.90
16437;DHT22;8328;52.206;21.006;2022-08-03T05:02:55;20.80;99.90
16437;DHT22;8328;52.206;21.006;2022-08-03T05:05:22;20.90;99.90
16437;DHT22;8328;52.206;21.006;2022-08-03T05:07:47;20.90;99.90
16437;DHT22;8328;52.206;21.006;2022-08-03T05:10:15;21.00;99.90
16437;DHT22;8328;52.206;21.006;2022-08-03T05:12:41;21.20;99.90
16437;DHT22;8328;52.206;21.006;2022-08-03T05:15:07;21.40;99.90
16437;DHT22;8328;52.206;21.006;2022-08-03T05:17:33;21.40;99.90
16437;DHT22;8328;52.206;21.006;2022-08-03T05:20:00;21.50;99.90
16437;DHT22;8328;52.206;21.006;2022-08-03T05:22:28;21.60;99.90
16437;DHT22;8328;52.206;21.006;2022-08-03T05:24:54;21.60;99.90
16437;DHT22;8328;52.206;21.006;2022-08-03T05:27:20;21.80;99.90
16437;DHT22;8328;52.206;21.006;2022-08-03T05:29:47;21.80;99.90
16437;DHT22;8328;52.206;21.006;2022-08-03T05:34:44;21.90;99.90
16437;DHT22;8328;52.206;21.006;2022-08-03T05:37:10;21.60;99.90
16437;DHT22;8328;52.206;21.006;2022-08-03T05:39:36;22.00;99.90
16437;DHT22;8328;52.206;21.006;2022-08-03T05:42:03;22.20;99.90
16437;DHT22;8328;52.206;21.006;2022-08-03T05:44:28;22.40;99.90
16437;DHT22;8328;52.206;21.006;2022-08-03T05:46:56;22.50;99.90
16437;DHT22;8328;52.206;21.006;2022-08-03T05:49:22;22.50;99.90
16437;DHT22;8328;52.206;21.006;2022-08-03T05:51:48;22.40;99.90
16437;DHT22;8328;52.206;21.006;2022-08-03T05:54:14;22.20;99.90
16437;DHT22;8328;52.206;21.006;2022-08-03T05:56:42;21.90;99.90
16437;DHT22;8328;52.206;21.006;2022-08-03T05:59:11;21.80;99.90
16437;DHT22;8328;52.206;21.006;2022-08-03T06:01:40;21.70;99.90
16437;DHT22;8328;52.206;21.006;2022-08-03T06:04:09;21.60;99.90
16437;DHT22;8328;52.206;21.006;2022-08-03T06:06:41;21.50;99.90
16437;DHT22;8328;52.206;21.006;2022-08-03T06:09:11;21.50;99.90
16437;DHT22;8328;52.206;21.006;2022-08-03T06:11:38;21.40;99.90
16437;DHT22;8328;52.206;21.006;2022-08-03T06:14:06;21.40;99.90
16437;DHT22;8328;52.206;21.006;2022-08-03T06:16:31;21.40;99.90
16437;DHT22;8328;52.206;21.006;2022-08-03T06:18:58;21.60;99.90
16437;DHT22;8328;52.206;21.006;2022-08-03T06:21:24;22.00;99.90
16437;DHT22;8328;52.206;21.006;2022-08-03T06:23:49;22.00;99.90
16437;DHT22;8328;52.206;21.006;2022-08-03T06:26:15;22.00;99.90
16437;DHT22;8328;52.206;21.006;2022-08-03T06:28:44;22.10;99.90
16437;DHT22;8328;52.206;21.006;2022-08-03T06:31:14;22.50;99.90
16437;DHT22;8328;52.206;21.006;2022-08-03T06:33:39;22.70;99.90
16437;DHT22;8328;52.206;21.006;2022-08-03T06:36:05;22.60;99.90
16437;DHT22;8328;52.206;21.006;2022-08-03T06:38:31;22.70;99.90
16437;DHT22;8328;52.206;21.006;2022-08-03T06:40:57;22.80;99.90
16437;DHT22;8328;52.206;21.006;2022-08-03T06:45:57;22.70;99.90
16437;DHT22;8328;52.206;21.006;2022-08-03T06:49:09;22.60;99.90
16437;DHT22;8328;52.206;21.006;2022-08-03T06:54:53;22.30;99.90
16437;DHT22;8328;52.206;21.006;2022-08-03T06:57:22;22.50;99.90
16437;DHT22;8328;52.206;21.006;2022-08-03T06:59:47;22.60;99.90
16437;DHT22;8328;52.206;21.006;2022-08-03T07:09:22;23.40;99.90
16437;DHT22;8328;52.206;21.006;2022-08-03T07:12:13;23.50;99.90
16437;DHT22;8328;52.206;21.006;2022-08-03T07:15:08;23.60;99.90
16437;DHT22;8328;52.206;21.006;2022-08-03T07:17:35;23.70;99.90
16437;DHT22;8328;52.206;21.006;2022-08-03T07:20:04;23.90;99.90
16437;DHT22;8328;52.206;21.006;2022-08-03T07:22:41;24.10;99.90
16437;DHT22;8328;52.206;21.006;2022-08-03T07:25:07;24.30;99.90
16437;DHT22;8328;52.206;21.006;2022-08-03T07:27:34;24.30;99.90
16437;DHT22;8328;52.206;21.006;2022-08-03T07:30:00;24.40;99.90
16437;DHT22;8328;52.206;21.006;2022-08-03T07:32:26;24.60;99.90
16437;DHT22;8328;52.206;21.006;2022-08-03T07:34:55;24.70;99.90
16437;DHT22;8328;52.206;21.006;2022-08-03T07:37:21;25.00;99.90
16437;DHT22;8328;52.206;21.006;2022-08-03T07:39:47;25.40;99.90
16437;DHT22;8328;52.206;21.006;2022-08-03T07:42:22;25.70;99.90
16437;DHT22;8328;52.206;21.006;2022-08-03T07:44:55;26.10;99.90
16437;DHT22;8328;52.206;21.006;2022-08-03T07:47:24;26.50;99.90
16437;DHT22;8328;52.206;21.006;2022-08-03T07:49:56;26.80;99.90
16437;DHT22;8328;52.206;21.006;2022-08-03T07:52:28;26.90;99.90
16437;DHT22;8328;52.206;21.006;2022-08-03T07:55:23;27.00;99.90
16437;DHT22;8328;52.206;21.006;2022-08-03T07:58:04;26.90;99.90
16437;DHT22;8328;52.206;21.006;2022-08-03T08:00:35;27.00;99.90
16437;DHT22;8328;52.206;21.006;2022-08-03T08:03:01;27.10;99.90
16437;DHT22;8328;52.206;21.006;2022-08-03T08:05:36;27.30;99.90
16437;DHT22;8328;52.206;21.006;2022-08-03T08:10:46;27.70;99.90
16437;DHT22;8328;52.206;21.006;2022-08-03T08:15:43;27.90;99.90
16437;DHT22;8328;52.206;21.006;2022-08-03T08:18:11;28.10;99.90
16437;DHT22;8328;52.206;21.006;2022-08-03T08:20:40;28.40;99.90
16437;DHT22;8328;52.206;21.006;2022-08-03T08:23:12;28.40;99.90
16437;DHT22;8328;52.206;21.006;2022-08-03T08:25:40;28.30;99.90
16437;DHT22;8328;52.206;21.006;2022-08-03T08:28:09;28.30;99.90
16437;DHT22;8328;52.206;21.006;2022-08-03T08:30:38;27.90;99.90
16437;DHT22;8328;52.206;21.006;2022-08-03T08:33:04;27.90;99.90
16437;DHT22;8328;52.206;21.006;2022-08-03T08:35:31;27.70;99.90
16437;DHT22;8328;52.206;21.006;2022-08-03T08:38:02;27.30;99.90
16437;DHT22;8328;52.206;21.006;2022-08-03T08:40:29;27.10;99.90
16437;DHT22;8328;52.206;21.006;2022-08-03T08:43:01;27.00;99.90
16437;DHT22;8328;52.206;21.006;2022-08-03T08:45:36;26.90;99.90
16437;DHT22;8328;52.206;21.006;2022-08-03T08:48:15;26.80;99.90
16437;DHT22;8328;52.206;21.006;2022-08-03T08:50:48;26.70;99.90
16437;DHT22;8328;52.206;21.006;2022-08-03T08:53:37;26.70;99.90
16437;DHT22;8328;52.206;21.006;2022-08-03T08:56:07;26.90;99.90
16437;DHT22;8328;52.206;21.006;2022-08-03T08:58:39;27.30;99.90
16437;DHT22;8328;52.206;21.006;2022-08-03T09:01:11;27.50;99.90
16437;DHT22;8328;52.206;21.006;2022-08-03T09:03:37;27.50;99.90
16437;DHT22;8328;52.206;21.006;2022-08-03T09:06:10;27.50;99.90
16437;DHT22;8328;52.206;21.006;2022-08-03T09:11:31;27.70;99.90
16437;DHT22;8328;52.206;21.006;2022-08-03T09:14:00;27.70;99.90
16437;DHT22;8328;52.206;21.006;2022-08-03T09:16:26;27.70;99.90
16437;DHT22;8328;52.206;21.006;2022-08-03T09:21:33;27.80;99.90
16437;DHT22;8328;52.206;21.006;2022-08-03T09:24:06;27.90;99.90
16437;DHT22;8328;52.206;21.006;2022-08-03T09:26:36;28.10;99.90
16437;DHT22;8328;52.206;21.006;2022-08-03T09:38:30;28.80;99.90
16437;DHT22;8328;52.206;21.006;2022-08-03T09:41:00;29.30;99.90
16437;DHT22;8328;52.206;21.006;2022-08-03T09:46:02;29.30;99.90
16437;DHT22;8328;52.206;21.006;2022-08-03T09:48:30;29.40;99.90
16437;DHT22;8328;52.206;21.006;2022-08-03T09:51:01;29.50;99.90
16437;DHT22;8328;52.206;21.006;2022-08-03T09:53:28;30.00;99.90
16437;DHT22;8328;52.206;21.006;2022-08-03T09:56:00;29.50;99.10
16437;DHT22;8328;52.206;21.006;2022-08-03T09:58:28;29.60;99.60
16437;DHT22;8328;52.206;21.006;2022-08-03T10:01:00;29.50;99.20
16437;DHT22;8328;52.206;21.006;2022-08-03T10:03:30;29.70;99.60
16437;DHT22;8328;52.206;21.006;2022-08-03T10:06:25;29.70;99.50
16437;DHT22;8328;52.206;21.006;2022-08-03T10:09:25;29.90;98.60
16437;DHT22;8328;52.206;21.006;2022-08-03T10:11:51;29.80;96.10
16437;DHT22;8328;52.206;21.006;2022-08-03T10:14:41;30.30;93.70
16437;DHT22;8328;52.206;21.006;2022-08-03T10:17:23;30.40;91.70
16437;DHT22;8328;52.206;21.006;2022-08-03T10:19:52;30.00;91.10
16437;DHT22;8328;52.206;21.006;2022-08-03T10:22:22;30.20;93.30
16437;DHT22;8328;52.206;21.006;2022-08-03T10:25:08;29.30;93.30
16437;DHT22;8328;52.206;21.006;2022-08-03T10:27:39;29.70;93.10
16437;DHT22;8328;52.206;21.006;2022-08-03T10:30:08;29.60;93.30
16437;DHT22;8328;52.206;21.006;2022-08-03T10:32:51;29.30;92.70
16437;DHT22;8328;52.206;21.006;2022-08-03T10:35:20;28.90;93.30
16437;DHT22;8328;52.206;21.006;2022-08-03T10:38:05;29.10;93.80
16437;DHT22;8328;52.206;21.006;2022-08-03T10:40:33;29.70;91.30
16437;DHT22;8328;52.206;21.006;2022-08-03T10:46:10;30.80;86.60
16437;DHT22;8328;52.206;21.006;2022-08-03T10:48:36;31.50;87.60
16437;DHT22;8328;52.206;21.006;2022-08-03T10:51:10;31.90;83.60
16437;DHT22;8328;52.206;21.006;2022-08-03T10:53:44;32.30;81.00
16437;DHT22;8328;52.206;21.006;2022-08-03T10:56:41;32.60;80.60
16437;DHT22;8328;52.206;21.006;2022-08-03T11:02:00;32.70;76.90
16437;DHT22;8328;52.206;21.006;2022-08-03T11:04:27;32.60;76.40
16437;DHT22;8328;52.206;21.006;2022-08-03T11:07:19;32.90;76.20
16437;DHT22;8328;52.206;21.006;2022-08-03T11:09:53;33.00;71.70
16437;DHT22;8328;52.206;21.006;2022-08-03T11:12:30;33.50;71.30
16437;DHT22;8328;52.206;21.006;2022-08-03T11:14:58;34.20;69.20
16437;DHT22;8328;52.206;21.006;2022-08-03T11:17:26;34.50;62.50
16437;DHT22;8328;52.206;21.006;2022-08-03T11:19:53;34.80;58.50
16437;DHT22;8328;52.206;21.006;2022-08-03T11:28:44;35.60;55.10
16437;DHT22;8328;52.206;21.006;2022-08-03T11:34:13;35.60;49.30
16437;DHT22;8328;52.206;21.006;2022-08-03T11:39:51;36.10;49.50
16437;DHT22;8328;52.206;21.006;2022-08-03T11:45:06;37.30;46.40
16437;DHT22;8328;52.206;21.006;2022-08-03T11:52:47;38.00;41.80
16437;DHT22;8328;52.206;21.006;2022-08-03T11:57:49;38.20;40.70
16437;DHT22;8328;52.206;21.006;2022-08-03T12:06:03;38.10;38.40
16437;DHT22;8328;52.206;21.006;2022-08-03T12:08:50;38.30;39.00
16437;DHT22;8328;52.206;21.006;2022-08-03T12:14:36;38.60;38.30
16437;DHT22;8328;52.206;21.006;2022-08-03T12:17:02;39.00;37.90
16437;DHT22;8328;52.206;21.006;2022-08-03T12:20:26;38.90;37.10
16437;DHT22;8328;52.206;21.006;2022-08-03T12:22:41;37.90;37.20
16437;DHT22;8328;52.206;21.006;2022-08-03T12:25:23;38.10;37.00
16437;DHT22;8328;52.206;21.006;2022-08-03T12:30:39;39.60;33.70
16437;DHT22;8328;52.206;21.006;2022-08-03T12:36:29;40.50;31.80
16437;DHT22;8328;52.206;21.006;2022-08-03T12:38:57;40.90;30.00
16437;DHT22;8328;52.206;21.006;2022-08-03T12:41:37;41.20;29.60
16437;DHT22;8328;52.206;21.006;2022-08-03T12:44:05;42.50;29.60
16437;DHT22;8328;52.206;21.006;2022-08-03T12:46:36;43.70;28.30
16437;DHT22;8328;52.206;21.006;2022-08-03T12:49:12;44.60;27.10
16437;DHT22;8328;52.206;21.006;2022-08-03T12:54:24;46.50;23.30
16437;DHT22;8328;52.206;21.006;2022-08-03T12:57:00;46.60;21.80
16437;DHT22;8328;52.206;21.006;2022-08-03T12:59:28;47.30;21.50
16437;DHT22;8328;52.206;21.006;2022-08-03T13:01:54;48.50;20.70
16437;DHT22;8328;52.206;21.006;2022-08-03T13:04:28;49.00;18.20
16437;DHT22;8328;52.206;21.006;2022-08-03T13:07:08;48.90;17.20
16437;DHT22;8328;52.206;21.006;2022-08-03T13:10:00;49.80;17.60
16437;DHT22;8328;52.206;21.006;2022-08-03T13:12:27;50.00;16.10
16437;DHT22;8328;52.206;21.006;2022-08-03T13:14:59;50.60;15.30
16437;DHT22;8328;52.206;21.006;2022-08-03T13:17:25;51.00;14.40
16437;DHT22;8328;52.206;21.006;2022-08-03T13:19:52;51.30;13.80
16437;DHT22;8328;52.206;21.006;2022-08-03T13:22:20;51.70;13.20
16437;DHT22;8328;52.206;21.006;2022-08-03T13:24:52;52.10;13.20
16437;DHT22;8328;52.206;21.006;2022-08-03T13:27:20;51.90;12.10
16437;DHT22;8328;52.206;21.006;2022-08-03T13:29:46;52.30;12.60
16437;DHT22;8328;52.206;21.006;2022-08-03T13:32:12;52.40;12.30
16437;DHT22;8328;52.206;21.006;2022-08-03T13:34:38;52.90;11.90
16437;DHT22;8328;52.206;21.006;2022-08-03T13:37:19;52.60;11.00
16437;DHT22;8328;52.206;21.006;2022-08-03T13:40:07;52.70;11.40
16437;DHT22;8328;52.206;21.006;2022-08-03T13:42:34;52.20;10.40
16437;DHT22;8328;52.206;21.006;2022-08-03T13:45:13;51.90;10.60
16437;DHT22;8328;52.206;21.006;2022-08-03T13:47:47;52.00;10.70
16437;DHT22;8328;52.206;21.006;2022-08-03T13:54:25;51.80;10.60
16437;DHT22;8328;52.206;21.006;2022-08-03T14:04:39;39.40;18.30
16437;DHT22;8328;52.206;21.006;2022-08-03T14:07:17;37.60;20.50
16437;DHT22;8328;52.206;21.006;2022-08-03T14:09:44;36.20;22.90
16437;DHT22;8328;52.206;21.006;2022-08-03T14:12:10;34.10;23.90
16437;DHT22;8328;52.206;21.006;2022-08-03T14:14:36;34.60;25.80
16437;DHT22;8328;52.206;21.006;2022-08-03T14:17:02;34.00;27.10
16437;DHT22;8328;52.206;21.006;2022-08-03T14:19:45;33.80;27.80
16437;DHT22;8328;52.206;21.006;2022-08-03T14:24:45;33.10;29.00
16437;DHT22;8328;52.206;21.006;2022-08-03T14:27:17;32.70;29.80
16437;DHT22;8328;52.206;21.006;2022-08-03T14:30:05;33.30;30.70
16437;DHT22;8328;52.206;21.006;2022-08-03T14:40:35;31.80;33.60
16437;DHT22;8328;52.206;21.006;2022-08-03T14:43:04;31.70;34.00
16437;DHT22;8328;52.206;21.006;2022-08-03T14:45:37;31.60;34.20
16437;DHT22;8328;52.206;21.006;2022-08-03T14:48:04;32.70;33.00
16437;DHT22;8328;52.206;21.006;2022-08-03T14:50:30;32.50;33.30
16437;DHT22;8328;52.206;21.006;2022-08-03T14:53:00;32.40;33.30
16437;DHT22;8328;52.206;21.006;2022-08-03T14:55:26;32.60;33.20
16437;DHT22;8328;52.206;21.006;2022-08-03T14:57:52;32.80;33.80
16437;DHT22;8328;52.206;21.006;2022-08-03T15:00:17;32.80;33.30
16437;DHT22;8328;52.206;21.006;2022-08-03T15:02:43;32.60;33.10
16437;DHT22;8328;52.206;21.006;2022-08-03T15:05:09;32.20;34.00
16437;DHT22;8328;52.206;21.006;2022-08-03T15:07:37;31.90;35.40
16437;DHT22;8328;52.206;21.006;2022-08-03T15:10:07;31.70;36.10
16437;DHT22;8328;52.206;21.006;2022-08-03T15:12:36;31.60;35.00
16437;DHT22;8328;52.206;21.006;2022-08-03T15:15:02;31.60;35.10
16437;DHT22;8328;52.206;21.006;2022-08-03T15:17:28;31.40;35.40
16437;DHT22;8328;52.206;21.006;2022-08-03T15:19:54;31.10;36.40
16437;DHT22;8328;52.206;21.006;2022-08-03T15:22:20;30.70;37.00
16437;DHT22;8328;52.206;21.006;2022-08-03T15:24:46;30.50;38.10
16437;DHT22;8328;52.206;21.006;2022-08-03T15:27:12;30.40;38.70
16437;DHT22;8328;52.206;21.006;2022-08-03T15:29:46;30.20;38.80
16437;DHT22;8328;52.206;21.006;2022-08-03T15:32:14;30.00;39.40
16437;DHT22;8328;52.206;21.006;2022-08-03T15:34:50;29.90;39.90
16437;DHT22;8328;52.206;21.006;2022-08-03T15:37:31;29.70;39.90
16437;DHT22;8328;52.206;21.006;2022-08-03T15:40:00;29.60;40.00
16437;DHT22;8328;52.206;21.006;2022-08-03T15:42:44;29.60;40.50
16437;DHT22;8328;52.206;21.006;2022-08-03T15:48:10;29.60;42.60
16437;DHT22;8328;52.206;21.006;2022-08-03T15:50:37;30.80;42.90
16437;DHT22;8328;52.206;21.006;2022-08-03T15:55:47;30.00;44.00
16437;DHT22;8328;52.206;21.006;2022-08-03T15:58:16;30.30;42.50
16437;DHT22;8328;52.206;21.006;2022-08-03T16:03:16;30.40;41.20
16437;DHT22;8328;52.206;21.006;2022-08-03T16:06:17;30.60;40.70
16437;DHT22;8328;52.206;21.006;2022-08-03T16:11:40;30.50;40.60
16437;DHT22;8328;52.206;21.006;2022-08-03T16:14:06;30.40;41.00
16437;DHT22;8328;52.206;21.006;2022-08-03T16:16:38;30.40;40.80
16437;DHT22;8328;52.206;21.006;2022-08-03T16:19:08;30.40;41.00
16437;DHT22;8328;52.206;21.006;2022-08-03T16:21:40;30.40;41.00
16437;DHT22;8328;52.206;21.006;2022-08-03T16:24:09;30.40;41.20
16437;DHT22;8328;52.206;21.006;2022-08-03T16:26:35;30.40;41.30
16437;DHT22;8328;52.206;21.006;2022-08-03T16:31:41;30.20;40.70
16437;DHT22;8328;52.206;21.006;2022-08-03T16:34:12;31.00;41.10
16437;DHT22;8328;52.206;21.006;2022-08-03T16:36:47;30.10;40.70
16437;DHT22;8328;52.206;21.006;2022-08-03T16:39:17;29.20;40.90
16437;DHT22;8328;52.206;21.006;2022-08-03T16:41:43;29.20;41.70
16437;DHT22;8328;52.206;21.006;2022-08-03T16:44:15;29.80;43.00
16437;DHT22;8328;52.206;21.006;2022-08-03T16:46:44;29.60;43.10
16437;DHT22;8328;52.206;21.006;2022-08-03T16:49:17;29.60;43.20
16437;DHT22;8328;52.206;21.006;2022-08-03T16:51:52;29.30;44.60
16437;DHT22;8328;52.206;21.006;2022-08-03T16:54:17;29.20;45.60
16437;DHT22;8328;52.206;21.006;2022-08-03T16:56:46;29.00;45.10
16437;DHT22;8328;52.206;21.006;2022-08-03T16:59:15;29.00;45.40
16437;DHT22;8328;52.206;21.006;2022-08-03T17:01:47;28.90;45.70
16437;DHT22;8328;52.206;21.006;2022-08-03T17:04:13;28.70;46.50
16437;DHT22;8328;52.206;21.006;2022-08-03T17:06:40;28.60;46.80
16437;DHT22;8328;52.206;21.006;2022-08-03T17:09:17;28.40;48.10
16437;DHT22;8328;52.206;21.006;2022-08-03T17:11:49;28.30;48.40
16437;DHT22;8328;52.206;21.006;2022-08-03T17:14:20;28.20;48.40
16437;DHT22;8328;52.206;21.006;2022-08-03T17:16:50;28.20;48.30
16437;DHT22;8328;52.206;21.006;2022-08-03T17:19:17;28.00;49.00
16437;DHT22;8328;52.206;21.006;2022-08-03T17:24:56;27.80;50.30
16437;DHT22;8328;52.206;21.006;2022-08-03T17:27:48;27.80;49.70
16437;DHT22;8328;52.206;21.006;2022-08-03T17:30:25;27.70;49.60
16437;DHT22;8328;52.206;21.006;2022-08-03T17:33:11;27.50;49.60
16437;DHT22;8328;52.206;21.006;2022-08-03T17:35:37;27.50;50.20
16437;DHT22;8328;52.206;21.006;2022-08-03T17:41:04;27.20;50.70
16437;DHT22;8328;52.206;21.006;2022-08-03T17:43:41;27.10;51.00
16437;DHT22;8328;52.206;21.006;2022-08-03T17:46:13;27.00;51.20
16437;DHT22;8328;52.206;21.006;2022-08-03T17:48:41;26.90;51.50
16437;DHT22;8328;52.206;21.006;2022-08-03T17:54:14;26.70;52.10
16437;DHT22;8328;52.206;21.006;2022-08-03T17:56:47;26.60;52.50
16437;DHT22;8328;52.206;21.006;2022-08-03T18:05:02;26.00;56.80
16437;DHT22;8328;52.206;21.006;2022-08-03T18:07:39;25.70;56.80
16437;DHT22;8328;52.206;21.006;2022-08-03T18:10:07;25.60;58.00
16437;DHT22;8328;52.206;21.006;2022-08-03T18:12:56;25.40;59.20
16437;DHT22;8328;52.206;21.006;2022-08-03T18:15:26;25.30;60.70
16437;DHT22;8328;52.206;21.006;2022-08-03T18:17:59;25.10;62.40
16437;DHT22;8328;52.206;21.006;2022-08-03T18:20:26;24.20;63.70
16437;DHT22;8328;52.206;21.006;2022-08-03T18:22:53;24.70;66.50